createdAt,value
2022-11-01T00:00:52.577Z,94.35
2022-11-01T00:01:47.916Z,94.38
2022-11-01T00:02:43.095Z,94.29
2022-11-01T00:03:38.373Z,94.32
2022-11-01T00:04:33.565Z,94.31
2022-11-01T00:05:28.904Z,94.26
2022-11-01T00:06:24.032Z,94.31
2022-11-01T00:07:19.421Z,94.38
2022-11-01T00:08:14.532Z,94.48
2022-11-01T00:09:09.752Z,94.44
2022-11-01T00:10:05.192Z,94.39
2022-11-01T00:11:00.284Z,94.29
2022-11-01T00:11:55.492Z,94.16
2022-11-01T00:12:50.773Z,94.06
2022-11-01T00:13:45.982Z,94.01
2022-11-01T00:14:41.189Z,93.97
2022-11-01T00:15:36.430Z,93.95
2022-11-01T00:16:31.673Z,93.96
2022-11-01T00:17:26.924Z,93.97
2022-11-01T00:18:22.182Z,93.93
2022-11-01T00:19:17.405Z,93.90
2022-11-01T00:20:12.668Z,93.92
2022-11-01T00:21:07.751Z,93.95
2022-11-01T00:22:02.842Z,94.12
2022-11-01T00:22:57.935Z,94.08
2022-11-01T00:23:53.025Z,93.93
2022-11-01T00:24:48.125Z,93.86
2022-11-01T00:25:43.228Z,93.59
2022-11-01T00:26:38.381Z,93.52
2022-11-01T00:27:33.367Z,93.28
2022-11-01T00:28:28.779Z,93.20
2022-11-01T00:29:23.599Z,93.18
2022-11-01T00:30:18.689Z,93.27
2022-11-01T00:31:14.014Z,93.43
2022-11-01T00:32:08.785Z,93.65
2022-11-01T00:33:03.815Z,93.88
2022-11-01T00:33:58.873Z,94.02
2022-11-01T00:34:53.860Z,94.18
2022-11-01T00:35:49.028Z,94.39
2022-11-01T00:36:43.923Z,94.54
2022-11-01T00:37:38.930Z,94.64
2022-11-01T00:38:33.934Z,94.84
2022-11-01T00:39:31.423Z,94.93
2022-11-01T00:40:25.048Z,94.92
2022-11-01T00:41:20.484Z,94.91
2022-11-01T00:42:15.669Z,94.92
2022-11-01T00:43:11.025Z,94.92
2022-11-01T00:44:06.188Z,94.90
2022-11-01T00:45:01.459Z,94.85
2022-11-01T00:45:56.888Z,94.85
2022-11-01T00:46:51.784Z,94.79
2022-11-01T00:47:47.061Z,94.81
2022-11-01T00:48:42.238Z,94.76
2022-11-01T00:49:37.398Z,94.71
2022-11-01T00:50:32.560Z,94.63
2022-11-01T00:51:27.992Z,94.60
2022-11-01T00:52:22.936Z,94.59
2022-11-01T00:53:18.082Z,94.66
2022-11-01T00:54:14.744Z,94.71
2022-11-01T00:55:09.840Z,94.67
2022-11-01T00:56:05.204Z,94.53
2022-11-01T00:57:00.477Z,94.42
2022-11-01T00:57:55.725Z,94.36
2022-11-01T00:58:50.855Z,94.44
2022-11-01T00:59:45.969Z,94.22
2022-11-01T01:00:40.903Z,94.16
2022-11-01T01:01:36.167Z,94.14
2022-11-01T01:02:31.183Z,94.16
2022-11-01T01:03:26.149Z,94.13
2022-11-01T01:04:21.242Z,94.12
2022-11-01T01:05:16.372Z,94.09
2022-11-01T01:06:11.434Z,94.11
2022-11-01T01:07:06.613Z,94.05
2022-11-01T01:08:01.636Z,94.01
2022-11-01T01:08:56.720Z,94.02
2022-11-01T01:09:53.231Z,94.01
2022-11-01T01:10:48.454Z,94.06
2022-11-01T01:11:43.259Z,94.08
2022-11-01T01:12:38.287Z,94.10
2022-11-01T01:13:33.341Z,94.12
2022-11-01T01:14:32.217Z,94.20
2022-11-01T01:15:23.386Z,94.25
2022-11-01T01:16:18.446Z,94.26
2022-11-01T01:17:13.510Z,94.30
2022-11-01T01:18:08.532Z,94.33
2022-11-01T01:19:03.648Z,94.26
2022-11-01T01:19:58.771Z,94.22
2022-11-01T01:20:54.317Z,94.15
2022-11-01T01:21:49.788Z,93.99
2022-11-01T01:22:44.983Z,93.89
2022-11-01T01:23:40.785Z,93.79
2022-11-01T01:24:36.014Z,93.80
2022-11-01T01:25:31.917Z,93.66
2022-11-01T01:26:27.044Z,93.51
2022-11-01T01:27:22.272Z,93.39
2022-11-01T01:28:18.080Z,93.43
2022-11-01T01:29:13.295Z,93.29
2022-11-01T01:30:08.753Z,93.13
2022-11-01T01:31:04.781Z,92.99
2022-11-01T01:31:59.964Z,92.96
2022-11-01T01:32:55.693Z,92.89
2022-11-01T01:33:50.992Z,92.86
2022-11-01T01:34:46.284Z,92.80
2022-11-01T01:35:42.008Z,92.75
2022-11-01T01:36:37.319Z,92.81
2022-11-01T01:37:33.077Z,92.75
2022-11-01T01:38:28.261Z,92.69
2022-11-01T01:39:23.557Z,92.75
2022-11-01T01:40:19.177Z,92.74
2022-11-01T01:41:14.358Z,92.75
2022-11-01T01:42:09.532Z,92.69
2022-11-01T01:43:06.215Z,92.76
2022-11-01T01:44:01.288Z,92.75
2022-11-01T01:44:56.999Z,92.88
2022-11-01T01:45:52.288Z,92.89
2022-11-01T01:46:47.640Z,92.81
2022-11-01T01:47:43.390Z,92.80
2022-11-01T01:48:38.477Z,92.78
2022-11-01T01:49:36.418Z,92.85
2022-11-01T01:50:29.668Z,92.84
2022-11-01T01:51:25.290Z,92.84
2022-11-01T01:52:20.452Z,92.81
2022-11-01T01:53:16.472Z,92.79
2022-11-01T01:54:11.484Z,92.84
2022-11-01T01:55:06.923Z,92.94
2022-11-01T01:56:02.825Z,92.93
2022-11-01T01:56:57.982Z,92.93
2022-11-01T01:57:53.422Z,92.81
2022-11-01T01:58:49.440Z,92.75
2022-11-01T01:59:44.596Z,92.66
2022-11-01T02:00:40.553Z,92.57
2022-11-01T02:01:35.841Z,92.47
2022-11-01T02:02:31.190Z,92.41
2022-11-01T02:03:27.000Z,92.36
2022-11-01T02:04:22.216Z,92.22
2022-11-01T02:05:18.018Z,92.03
2022-11-01T02:06:13.311Z,91.90
2022-11-01T02:07:08.529Z,91.81
2022-11-01T02:08:03.804Z,91.78
2022-11-01T02:08:58.816Z,91.77
2022-11-01T02:09:54.697Z,91.84
2022-11-01T02:10:49.874Z,91.86
2022-11-01T02:11:45.846Z,91.88
2022-11-01T02:12:40.890Z,92.01
2022-11-01T02:13:36.325Z,92.02
2022-11-01T02:14:32.101Z,92.14
2022-11-01T02:15:27.270Z,92.19
2022-11-01T02:16:22.545Z,92.19
2022-11-01T02:17:18.975Z,92.11
2022-11-01T02:18:14.169Z,92.00
2022-11-01T02:19:09.906Z,92.00
2022-11-01T02:20:05.048Z,92.02
2022-11-01T02:21:00.481Z,91.95
2022-11-01T02:21:56.217Z,91.93
2022-11-01T02:22:51.526Z,91.86
2022-11-01T02:23:46.719Z,91.96
2022-11-01T02:24:41.861Z,91.99
2022-11-01T02:25:37.134Z,92.09
2022-11-01T02:26:32.191Z,92.23
2022-11-01T02:27:27.241Z,92.21
2022-11-01T02:28:22.349Z,91.99
2022-11-01T02:29:17.386Z,91.88
2022-11-01T02:30:12.430Z,91.79
2022-11-01T02:31:07.449Z,91.86
2022-11-01T02:32:02.490Z,91.81
2022-11-01T02:32:57.661Z,91.71
2022-11-01T02:33:52.709Z,91.78
2022-11-01T02:34:48.137Z,91.60
2022-11-01T02:35:43.306Z,91.54
2022-11-01T02:36:38.566Z,91.56
2022-11-01T02:37:33.604Z,91.79
2022-11-01T02:38:28.616Z,91.75
2022-11-01T02:39:23.652Z,91.80
2022-11-01T02:40:18.845Z,91.81
2022-11-01T02:41:13.744Z,91.97
2022-11-01T02:42:08.764Z,91.91
2022-11-01T02:43:04.001Z,91.95
2022-11-01T02:43:58.906Z,92.02
2022-11-01T02:44:53.957Z,92.18
2022-11-01T02:45:48.991Z,92.17
2022-11-01T02:46:44.002Z,92.26
2022-11-01T02:47:39.025Z,92.32
2022-11-01T02:48:39.742Z,92.39
2022-11-01T02:49:34.902Z,92.44
2022-11-01T02:50:30.031Z,92.46
2022-11-01T02:51:25.285Z,92.44
2022-11-01T02:52:20.591Z,92.52
2022-11-01T02:53:15.861Z,92.51
2022-11-01T02:54:11.011Z,92.46
2022-11-01T02:55:06.320Z,92.44
2022-11-01T02:56:01.801Z,92.55
2022-11-01T02:56:56.662Z,92.54
2022-11-01T02:57:51.938Z,92.31
2022-11-01T02:58:47.112Z,92.18
2022-11-01T02:59:42.380Z,92.12
2022-11-01T03:00:37.648Z,92.06
2022-11-01T03:01:32.909Z,92.00
2022-11-01T03:02:28.234Z,92.04
2022-11-01T03:03:24.337Z,92.08
2022-11-01T03:04:19.513Z,92.10
2022-11-01T03:05:14.804Z,92.20
2022-11-01T03:06:09.985Z,92.27
2022-11-01T03:07:05.118Z,92.33
2022-11-01T03:08:00.669Z,92.40
2022-11-01T03:08:55.520Z,92.48
2022-11-01T03:09:50.794Z,92.59
2022-11-01T03:10:46.197Z,92.55
2022-11-01T03:11:41.533Z,92.55
2022-11-01T03:12:36.567Z,92.50
2022-11-01T03:13:31.710Z,92.43
2022-11-01T03:14:26.851Z,92.28
2022-11-01T03:15:22.283Z,92.26
2022-11-01T03:16:17.451Z,92.12
2022-11-01T03:17:12.599Z,92.04
2022-11-01T03:18:07.760Z,91.97
2022-11-01T03:19:03.204Z,92.03
2022-11-01T03:19:58.322Z,91.97
2022-11-01T03:20:53.503Z,91.95
2022-11-01T03:21:48.803Z,91.92
2022-11-01T03:22:44.029Z,91.94
2022-11-01T03:23:39.149Z,91.89
2022-11-01T03:24:34.428Z,91.91
2022-11-01T03:25:29.627Z,91.84
2022-11-01T03:26:24.766Z,91.89
2022-11-01T03:27:20.271Z,91.98
2022-11-01T03:28:15.296Z,91.95
2022-11-01T03:29:10.571Z,91.94
2022-11-01T03:30:05.752Z,91.86
2022-11-01T03:31:00.764Z,91.81
2022-11-01T03:31:55.791Z,91.83
2022-11-01T03:32:50.873Z,91.87
2022-11-01T03:33:45.886Z,91.80
2022-11-01T03:34:41.184Z,91.73
2022-11-01T03:35:36.355Z,91.59
2022-11-01T03:36:31.395Z,91.54
2022-11-01T03:37:30.657Z,91.49
2022-11-01T03:38:25.672Z,91.64
2022-11-01T03:39:20.813Z,91.67
2022-11-01T03:40:15.994Z,91.59
2022-11-01T03:41:11.298Z,91.47
2022-11-01T03:42:06.575Z,91.42
2022-11-01T03:43:01.974Z,91.48
2022-11-01T03:43:56.974Z,91.48
2022-11-01T03:44:52.133Z,91.62
2022-11-01T03:45:47.292Z,91.59
2022-11-01T03:46:42.571Z,91.56
2022-11-01T03:47:38.068Z,91.56
2022-11-01T03:48:33.104Z,91.62
2022-11-01T03:49:28.250Z,91.58
2022-11-01T03:50:23.417Z,91.56
2022-11-01T03:51:18.708Z,91.62
2022-11-01T03:52:14.113Z,91.67
2022-11-01T03:53:09.144Z,91.76
2022-11-01T03:54:04.486Z,91.80
2022-11-01T03:54:59.640Z,91.89
2022-11-01T03:55:54.791Z,91.80
2022-11-01T03:56:50.226Z,91.64
2022-11-01T03:57:45.211Z,91.56
2022-11-01T03:58:40.481Z,91.47
2022-11-01T03:59:35.906Z,91.45
2022-11-01T04:00:30.966Z,91.54
2022-11-01T04:01:26.251Z,91.64
2022-11-01T04:02:21.476Z,91.68
2022-11-01T04:03:16.486Z,91.63
2022-11-01T04:04:11.916Z,91.72
2022-11-01T04:05:07.064Z,91.72
2022-11-01T04:06:02.210Z,91.53
2022-11-01T04:06:57.386Z,91.41
2022-11-01T04:07:52.731Z,91.32
2022-11-01T04:08:47.875Z,91.26
2022-11-01T04:09:43.049Z,91.24
2022-11-01T04:10:38.342Z,91.34
2022-11-01T04:11:33.511Z,91.40
2022-11-01T04:12:28.811Z,91.45
2022-11-01T04:13:23.952Z,91.63
2022-11-01T04:14:19.187Z,91.69
2022-11-01T04:15:14.298Z,91.57
2022-11-01T04:16:09.730Z,91.48
2022-11-01T04:17:04.770Z,91.45
2022-11-01T04:17:59.949Z,91.37
2022-11-01T04:18:55.118Z,91.35
2022-11-01T04:19:50.401Z,91.37
2022-11-01T04:20:45.830Z,91.49
2022-11-01T04:21:41.068Z,91.56
2022-11-01T04:22:36.181Z,91.65
2022-11-01T04:23:31.385Z,91.74
2022-11-01T04:24:26.651Z,91.84
2022-11-01T04:25:22.084Z,91.89
2022-11-01T04:26:17.101Z,91.91
2022-11-01T04:27:12.402Z,91.84
2022-11-01T04:28:07.554Z,91.81
2022-11-01T04:29:02.820Z,91.86
2022-11-01T04:29:58.106Z,91.96
2022-11-01T04:30:53.300Z,92.02
2022-11-01T04:31:48.427Z,91.99
2022-11-01T04:32:43.838Z,92.00
2022-11-01T04:33:39.002Z,92.07
2022-11-01T04:34:34.198Z,92.12
2022-11-01T04:35:29.319Z,92.25
2022-11-01T04:36:24.514Z,92.24
2022-11-01T04:37:19.446Z,92.12
2022-11-01T04:38:14.500Z,91.93
2022-11-01T04:39:09.724Z,91.76
2022-11-01T04:40:04.897Z,91.63
2022-11-01T04:40:59.858Z,91.64
2022-11-01T04:41:54.920Z,91.57
2022-11-01T04:42:50.032Z,91.41
2022-11-01T04:43:45.128Z,91.33
2022-11-01T04:44:40.235Z,91.35
2022-11-01T04:45:35.449Z,91.36
2022-11-01T04:46:30.403Z,91.54
2022-11-01T04:47:25.478Z,91.90
2022-11-01T04:48:20.545Z,92.13
2022-11-01T04:49:15.624Z,92.21
2022-11-01T04:50:10.708Z,92.31
2022-11-01T04:51:05.937Z,92.41
2022-11-01T04:52:00.934Z,92.51
2022-11-01T04:52:56.412Z,92.65
2022-11-01T04:53:51.559Z,92.73
2022-11-01T04:54:46.800Z,92.75
2022-11-01T04:55:42.005Z,92.74
2022-11-01T04:56:37.414Z,92.67
2022-11-01T04:57:32.645Z,92.53
2022-11-01T04:58:27.878Z,92.36
2022-11-01T04:59:23.232Z,92.18
2022-11-01T05:00:18.354Z,92.02
2022-11-01T05:01:13.682Z,91.91
2022-11-01T05:02:08.972Z,91.67
2022-11-01T05:03:04.815Z,91.52
2022-11-01T05:03:59.476Z,91.53
2022-11-01T05:04:54.732Z,91.49
2022-11-01T05:05:49.969Z,91.37
2022-11-01T05:06:45.201Z,91.32
2022-11-01T05:07:40.441Z,91.40
2022-11-01T05:08:37.033Z,91.47
2022-11-01T05:09:32.574Z,91.56
2022-11-01T05:10:27.521Z,91.62
2022-11-01T05:11:22.864Z,91.71
2022-11-01T05:12:18.216Z,91.81
2022-11-01T05:13:13.327Z,91.86
2022-11-01T05:14:08.402Z,91.93
2022-11-01T05:15:03.843Z,92.20
2022-11-01T05:16:54.536Z,92.29
2022-11-01T05:17:48.537Z,92.21
2022-11-01T05:18:43.624Z,92.25
2022-11-01T05:19:38.697Z,92.17
2022-11-01T05:20:33.789Z,92.21
2022-11-01T05:21:28.960Z,92.34
2022-11-01T05:22:25.684Z,92.49
2022-11-01T05:23:21.049Z,92.49
2022-11-01T05:24:16.123Z,92.48
2022-11-01T05:25:11.339Z,92.43
2022-11-01T05:26:06.691Z,92.40
2022-11-01T05:27:01.928Z,92.51
2022-11-01T05:27:57.144Z,92.53
2022-11-01T05:28:52.389Z,92.65
2022-11-01T05:29:47.623Z,92.71
2022-11-01T05:30:43.000Z,92.64
2022-11-01T05:31:38.342Z,92.50
2022-11-01T05:32:33.443Z,92.34
2022-11-01T05:33:28.651Z,92.14
2022-11-01T05:34:23.926Z,91.80
2022-11-01T05:35:18.872Z,91.82
2022-11-01T05:36:13.940Z,91.95
2022-11-01T05:37:09.071Z,91.94
2022-11-01T05:38:07.150Z,92.04
2022-11-01T05:39:02.507Z,92.07
2022-11-01T05:39:57.735Z,92.12
2022-11-01T05:40:52.832Z,92.24
2022-11-01T05:41:47.900Z,92.29
2022-11-01T05:42:43.013Z,92.28
2022-11-01T05:43:38.115Z,92.31
2022-11-01T05:44:33.077Z,92.26
2022-11-01T05:45:28.191Z,92.41
2022-11-01T05:46:23.255Z,92.33
2022-11-01T05:47:18.376Z,92.29
2022-11-01T05:48:13.481Z,92.27
2022-11-01T05:49:08.431Z,92.26
2022-11-01T05:50:03.513Z,92.24
2022-11-01T05:50:58.519Z,92.15
2022-11-01T05:51:53.551Z,92.07
2022-11-01T05:52:48.663Z,92.08
2022-11-01T05:53:43.776Z,92.11
2022-11-01T05:54:38.782Z,92.14
2022-11-01T05:55:34.472Z,92.31
2022-11-01T05:56:29.803Z,92.48
2022-11-01T05:57:27.599Z,92.57
2022-11-01T05:58:21.788Z,92.50
2022-11-01T05:59:16.210Z,92.54
2022-11-01T06:00:12.173Z,92.57
2022-11-01T06:01:07.355Z,92.61
2022-11-01T06:02:03.063Z,92.61
2022-11-01T06:02:58.711Z,92.60
2022-11-01T06:03:53.917Z,92.58
2022-11-01T06:04:49.299Z,92.53
2022-11-01T06:05:45.561Z,92.54
2022-11-01T06:06:40.842Z,92.51
2022-11-01T06:07:36.565Z,92.49
2022-11-01T06:08:31.826Z,92.44
2022-11-01T06:09:27.377Z,92.39
2022-11-01T06:10:23.130Z,92.36
2022-11-01T06:11:18.528Z,92.33
2022-11-01T06:12:14.287Z,92.40
2022-11-01T06:13:09.600Z,92.46
2022-11-01T06:14:05.075Z,92.48
2022-11-01T06:15:00.732Z,92.42
2022-11-01T06:15:56.119Z,92.37
2022-11-01T06:16:51.470Z,92.41
2022-11-01T06:17:47.808Z,92.50
2022-11-01T06:18:43.236Z,92.53
2022-11-01T06:19:38.905Z,92.65
2022-11-01T06:20:34.285Z,92.79
2022-11-01T06:21:30.496Z,92.99
2022-11-01T06:22:25.655Z,93.11
2022-11-01T06:23:21.051Z,93.16
2022-11-01T06:24:16.852Z,93.23
2022-11-01T06:25:12.279Z,93.22
2022-11-01T06:26:07.661Z,93.24
2022-11-01T06:27:04.131Z,93.21
2022-11-01T06:27:58.976Z,93.13
2022-11-01T06:28:54.176Z,93.01
2022-11-01T06:29:50.785Z,93.15
2022-11-01T06:30:46.355Z,93.24
2022-11-01T06:31:42.136Z,93.43
2022-11-01T06:32:37.510Z,93.61
2022-11-01T06:33:33.063Z,93.74
2022-11-01T06:34:28.709Z,93.75
2022-11-01T06:35:24.189Z,93.77
2022-11-01T06:36:19.848Z,93.71
2022-11-01T06:37:15.258Z,93.70
2022-11-01T06:38:10.661Z,93.65
2022-11-01T06:39:06.464Z,93.56
2022-11-01T06:40:01.877Z,93.48
2022-11-01T06:40:57.515Z,93.48
2022-11-01T06:41:53.860Z,93.36
2022-11-01T06:42:49.365Z,93.24
2022-11-01T06:43:45.169Z,93.07
2022-11-01T06:44:40.528Z,93.00
2022-11-01T06:45:35.971Z,92.92
2022-11-01T06:46:31.655Z,92.94
2022-11-01T06:47:27.164Z,92.92
2022-11-01T06:48:22.860Z,92.87
2022-11-01T06:49:19.329Z,92.82
2022-11-01T06:50:13.694Z,92.77
2022-11-01T06:51:09.419Z,92.72
2022-11-01T06:52:04.867Z,92.71
2022-11-01T06:53:00.298Z,92.64
2022-11-01T06:53:55.713Z,92.56
2022-11-01T06:54:51.450Z,92.51
2022-11-01T06:55:47.094Z,92.49
2022-11-01T06:56:42.596Z,92.54
2022-11-01T06:57:38.235Z,92.53
2022-11-01T06:58:33.721Z,92.57
2022-11-01T06:59:29.561Z,92.58
2022-11-01T07:00:25.167Z,92.51
2022-11-01T07:01:20.634Z,92.51
2022-11-01T07:02:19.398Z,92.57
2022-11-01T07:03:11.917Z,92.56
2022-11-01T07:04:07.610Z,92.58
2022-11-01T07:05:03.687Z,92.53
2022-11-01T07:05:59.183Z,92.54
2022-11-01T07:06:55.374Z,92.51
2022-11-01T07:07:50.624Z,92.49
2022-11-01T07:08:46.130Z,92.50
2022-11-01T07:09:41.855Z,92.46
2022-11-01T07:10:37.340Z,92.35
2022-11-01T07:11:32.829Z,92.26
2022-11-01T07:12:28.656Z,92.02
2022-11-01T07:13:23.993Z,91.92
2022-11-01T07:14:19.061Z,91.84
2022-11-01T07:15:14.169Z,91.74
2022-11-01T07:16:09.236Z,91.48
2022-11-01T07:17:04.216Z,91.36
2022-11-01T07:17:59.487Z,91.27
2022-11-01T07:18:54.417Z,91.25
2022-11-01T07:19:49.519Z,91.30
2022-11-01T07:21:39.754Z,90.91
2022-11-01T07:22:34.719Z,90.85
2022-11-01T07:23:29.816Z,90.73
2022-11-01T07:24:24.897Z,90.54
2022-11-01T07:25:20.028Z,90.53
2022-11-01T07:26:15.197Z,90.57
2022-11-01T07:27:10.555Z,90.54
2022-11-01T07:28:06.421Z,90.50
2022-11-01T07:29:01.839Z,90.48
2022-11-01T07:29:57.319Z,90.36
2022-11-01T07:30:53.132Z,90.30
2022-11-01T07:31:48.621Z,90.14
2022-11-01T07:32:44.646Z,89.98
2022-11-01T07:33:39.916Z,89.91
2022-11-01T07:34:35.403Z,89.96
2022-11-01T07:35:31.390Z,90.09
2022-11-01T07:36:26.642Z,90.20
2022-11-01T07:37:22.343Z,90.09
2022-11-01T07:38:18.739Z,90.10
2022-11-01T07:39:13.897Z,90.05
2022-11-01T07:40:09.795Z,89.97
2022-11-01T07:41:05.188Z,89.88
2022-11-01T07:42:00.676Z,89.97
2022-11-01T07:42:56.477Z,90.10
2022-11-01T07:43:51.975Z,90.15
2022-11-01T07:44:47.890Z,90.23
2022-11-01T07:45:43.275Z,90.30
2022-11-01T07:46:38.759Z,90.40
2022-11-01T07:47:34.780Z,90.37
2022-11-01T07:48:30.042Z,90.36
2022-11-01T07:49:25.525Z,90.37
2022-11-01T07:50:21.869Z,90.42
2022-11-01T07:51:17.358Z,90.43
2022-11-01T07:52:13.272Z,90.39
2022-11-01T07:53:08.780Z,90.39
2022-11-01T07:54:04.279Z,90.41
2022-11-01T07:55:00.080Z,90.37
2022-11-01T07:55:55.494Z,90.35
2022-11-01T07:56:51.518Z,90.37
2022-11-01T07:57:46.902Z,90.32
2022-11-01T07:58:42.376Z,90.31
2022-11-01T07:59:38.360Z,90.15
2022-11-01T08:01:29.712Z,89.92
2022-11-01T08:02:25.689Z,89.81
2022-11-01T08:03:21.126Z,89.85
2022-11-01T08:04:17.064Z,89.79
2022-11-01T08:05:12.571Z,89.64
2022-11-01T08:06:08.160Z,89.52
2022-11-01T08:07:04.148Z,89.43
2022-11-01T08:07:59.536Z,89.26
2022-11-01T08:08:55.212Z,89.17
2022-11-01T08:09:50.585Z,89.19
2022-11-01T08:10:46.081Z,89.08
2022-11-01T08:11:41.835Z,88.91
2022-11-01T08:12:37.474Z,88.78
2022-11-01T08:13:32.816Z,88.62
2022-11-01T08:14:29.543Z,88.52
2022-11-01T08:15:25.024Z,88.46
2022-11-01T08:16:20.800Z,88.20
2022-11-01T08:17:16.321Z,88.04
2022-11-01T08:18:11.835Z,87.85
2022-11-01T08:19:07.634Z,87.50
2022-11-01T08:20:03.111Z,87.25
2022-11-01T08:20:58.869Z,86.87
2022-11-01T08:21:54.241Z,86.64
2022-11-01T08:22:49.746Z,86.36
2022-11-01T08:23:45.180Z,85.65
2022-11-01T08:24:40.572Z,85.49
2022-11-01T08:25:37.216Z,85.09
2022-11-01T08:26:32.380Z,84.57
2022-11-01T08:27:30.345Z,84.26
2022-11-01T08:28:23.761Z,83.76
2022-11-01T08:29:19.060Z,83.22
2022-11-01T08:30:14.871Z,82.56
2022-11-01T08:31:10.269Z,81.48
2022-11-01T08:32:05.970Z,80.99
2022-11-01T08:33:01.765Z,80.76
2022-11-01T08:33:57.106Z,80.79
2022-11-01T08:34:52.779Z,80.76
2022-11-01T08:35:50.684Z,80.88
2022-11-01T08:36:43.706Z,80.73
2022-11-01T08:37:38.721Z,80.86
2022-11-01T08:38:33.866Z,80.83
2022-11-01T08:39:29.064Z,81.07
2022-11-01T08:40:24.150Z,81.41
2022-11-01T08:41:19.155Z,81.47
2022-11-01T08:42:14.174Z,81.82
2022-11-01T08:43:09.264Z,81.90
2022-11-01T08:44:04.498Z,81.96
2022-11-01T08:44:59.372Z,81.99
2022-11-01T08:45:54.476Z,82.35
2022-11-01T08:46:50.182Z,82.69
2022-11-01T08:47:45.708Z,82.86
2022-11-01T08:48:41.385Z,82.49
2022-11-01T08:49:36.525Z,82.30
2022-11-01T08:50:33.255Z,82.09
2022-11-01T08:51:28.668Z,82.46
2022-11-01T08:52:24.295Z,82.74
2022-11-01T08:53:20.082Z,82.85
2022-11-01T08:54:14.733Z,83.14
2022-11-01T08:55:09.847Z,82.87
2022-11-01T08:56:04.933Z,82.90
2022-11-01T08:56:59.974Z,82.76
2022-11-01T08:57:55.192Z,82.70
2022-11-01T08:58:50.152Z,82.66
2022-11-01T08:59:45.254Z,82.82
2022-11-01T09:00:40.476Z,83.06
2022-11-01T09:01:38.612Z,83.15
2022-11-01T09:02:33.610Z,83.43
2022-11-01T09:03:28.724Z,83.78
2022-11-01T09:04:23.672Z,83.80
2022-11-01T09:05:18.778Z,83.89
2022-11-01T09:06:13.857Z,83.85
2022-11-01T09:07:08.938Z,83.73
2022-11-01T09:08:04.247Z,83.55
2022-11-01T09:08:59.019Z,83.70
2022-11-01T09:09:54.351Z,83.81
2022-11-01T09:10:51.167Z,83.89
2022-11-01T09:11:46.515Z,84.12
2022-11-01T09:12:42.433Z,83.98
2022-11-01T09:13:37.938Z,83.99
2022-11-01T09:14:33.454Z,84.19
2022-11-01T09:15:29.381Z,84.23
2022-11-01T09:16:24.864Z,84.18
2022-11-01T09:17:20.651Z,84.21
2022-11-01T09:18:16.125Z,84.38
2022-11-01T09:19:11.642Z,84.44
2022-11-01T09:20:07.566Z,84.82
2022-11-01T09:21:03.014Z,84.76
2022-11-01T09:21:58.512Z,84.53
2022-11-01T09:22:54.843Z,84.54
2022-11-01T09:23:50.352Z,84.75
2022-11-01T09:24:46.221Z,84.85
2022-11-01T09:25:41.732Z,84.77
2022-11-01T09:26:37.195Z,84.62
2022-11-01T09:27:32.999Z,84.53
2022-11-01T09:28:32.798Z,84.48
2022-11-01T09:29:25.590Z,84.61
2022-11-01T09:30:19.721Z,84.53
2022-11-01T09:31:20.908Z,84.27
2022-11-01T09:32:12.947Z,84.13
2022-11-01T09:33:07.525Z,84.00
2022-11-01T09:34:02.879Z,83.76
2022-11-01T09:34:59.362Z,83.91
2022-11-01T09:35:59.312Z,83.75
2022-11-01T09:36:50.768Z,83.90
2022-11-01T09:37:46.278Z,83.88
2022-11-01T09:38:41.816Z,83.77
2022-11-01T09:39:37.403Z,83.74
2022-11-01T09:40:32.907Z,83.31
2022-11-01T09:41:28.707Z,83.26
2022-11-01T09:42:24.103Z,83.43
2022-11-01T09:43:19.604Z,83.60
2022-11-01T09:44:15.428Z,83.63
2022-11-01T09:45:10.661Z,83.78
2022-11-01T09:46:06.163Z,83.82
2022-11-01T09:47:02.821Z,83.79
2022-11-01T09:47:57.881Z,83.60
2022-11-01T09:48:53.766Z,83.54
2022-11-01T09:49:49.236Z,83.46
2022-11-01T09:50:44.625Z,83.35
2022-11-01T09:51:40.527Z,83.38
2022-11-01T09:52:36.010Z,83.50
2022-11-01T09:53:31.965Z,83.46
2022-11-01T09:54:27.162Z,83.62
2022-11-01T09:55:22.653Z,83.42
2022-11-01T09:56:18.410Z,83.37
2022-11-01T09:57:13.846Z,83.27
2022-11-01T09:58:09.391Z,83.37
2022-11-01T09:59:05.599Z,83.43
2022-11-01T10:00:01.110Z,83.29
2022-11-01T10:00:56.682Z,83.29
2022-11-01T10:01:52.242Z,83.32
2022-11-01T10:02:47.832Z,83.27
2022-11-01T10:03:43.271Z,83.16
2022-11-01T10:04:38.994Z,83.18
2022-11-01T10:05:34.420Z,83.15
2022-11-01T10:06:29.851Z,82.91
2022-11-01T10:07:25.585Z,83.07
2022-11-01T10:08:21.019Z,83.07
2022-11-01T10:09:16.564Z,83.19
2022-11-01T10:10:12.840Z,83.35
2022-11-01T10:11:08.612Z,83.43
2022-11-01T10:12:04.027Z,83.47
2022-11-01T10:12:59.400Z,83.56
2022-11-01T10:13:54.946Z,83.64
2022-11-01T10:14:50.627Z,83.67
2022-11-01T10:15:46.120Z,83.67
2022-11-01T10:16:41.850Z,83.64
2022-11-01T10:17:37.274Z,83.82
2022-11-01T10:18:32.829Z,83.85
2022-11-01T10:19:28.134Z,83.60
2022-11-01T10:20:23.525Z,83.49
2022-11-01T10:21:19.073Z,83.39
2022-11-01T10:22:14.051Z,83.48
2022-11-01T10:23:09.065Z,83.07
2022-11-01T10:24:08.974Z,83.04
2022-11-01T10:25:04.312Z,83.08
2022-11-01T10:25:59.764Z,82.93
2022-11-01T10:26:55.306Z,82.93
2022-11-01T10:27:51.990Z,82.70
2022-11-01T10:28:47.471Z,82.47
2022-11-01T10:29:42.963Z,82.20
2022-11-01T10:30:38.473Z,82.10
2022-11-01T10:31:33.536Z,81.86
2022-11-01T10:32:28.647Z,81.48
2022-11-01T10:33:23.722Z,80.86
2022-11-01T10:34:18.794Z,80.46
2022-11-01T10:35:13.872Z,79.95
2022-11-01T10:36:08.942Z,79.26
2022-11-01T10:37:04.047Z,78.64
2022-11-01T10:38:11.113Z,78.71
2022-11-01T10:39:55.538Z,78.57
2022-11-01T10:40:45.328Z,78.53
2022-11-01T10:41:39.160Z,78.05
2022-11-01T10:42:34.216Z,78.03
2022-11-01T10:43:29.347Z,78.28
2022-11-01T10:44:24.388Z,78.47
2022-11-01T10:45:19.474Z,78.10
2022-11-01T10:46:19.573Z,78.10
2022-11-01T10:47:15.041Z,78.23
2022-11-01T10:48:10.509Z,77.89
2022-11-01T10:49:06.433Z,77.55
2022-11-01T10:50:06.493Z,77.51
2022-11-01T10:50:58.384Z,77.56
2022-11-01T10:51:53.106Z,77.86
2022-11-01T10:52:48.718Z,78.09
2022-11-01T10:53:44.219Z,78.08
2022-11-01T10:54:39.655Z,77.89
2022-11-01T10:55:36.114Z,77.96
2022-11-01T10:56:31.950Z,78.11
2022-11-01T10:57:27.563Z,78.21
2022-11-01T10:58:22.894Z,78.22
2022-11-01T10:59:18.386Z,78.11
2022-11-01T11:00:14.265Z,78.00
2022-11-01T11:01:10.006Z,77.79
2022-11-01T11:02:05.781Z,77.75
2022-11-01T11:03:01.093Z,77.62
2022-11-01T11:03:56.711Z,77.69
2022-11-01T11:04:52.872Z,77.68
2022-11-01T11:05:48.450Z,77.41
2022-11-01T11:06:43.787Z,77.51
2022-11-01T11:07:40.251Z,77.48
2022-11-01T11:08:35.729Z,77.82
2022-11-01T11:09:31.619Z,78.15
2022-11-01T11:10:27.133Z,78.44
2022-11-01T11:11:22.612Z,78.70
2022-11-01T11:12:18.423Z,78.72
2022-11-01T11:13:13.863Z,78.46
2022-11-01T11:14:09.759Z,78.33
2022-11-01T11:15:05.253Z,78.18
2022-11-01T11:16:00.675Z,77.96
2022-11-01T11:16:56.349Z,78.27
2022-11-01T11:17:51.953Z,78.21
2022-11-01T11:18:47.380Z,78.04
2022-11-01T11:19:43.713Z,77.60
2022-11-01T11:20:39.208Z,77.90
2022-11-01T11:21:35.088Z,77.86
2022-11-01T11:22:30.432Z,77.51
2022-11-01T11:23:25.996Z,77.29
2022-11-01T11:24:21.741Z,77.09
2022-11-01T11:25:17.061Z,77.01
2022-11-01T11:26:13.105Z,77.07
2022-11-01T11:27:08.345Z,77.33
2022-11-01T11:28:04.113Z,77.36
2022-11-01T11:28:59.616Z,77.29
2022-11-01T11:29:55.122Z,77.14
2022-11-01T11:30:50.674Z,77.18
2022-11-01T11:31:46.847Z,77.06
2022-11-01T11:32:42.328Z,76.96
2022-11-01T11:33:38.224Z,77.41
2022-11-01T11:34:33.674Z,77.06
2022-11-01T11:35:29.276Z,78.92
2022-11-01T11:36:24.219Z,78.13
2022-11-01T11:37:19.187Z,76.95
2022-11-01T11:38:14.286Z,76.58
2022-11-01T11:39:09.510Z,77.05
2022-11-01T11:40:04.553Z,77.14
2022-11-01T11:40:59.584Z,77.11
2022-11-01T11:41:54.888Z,77.07
2022-11-01T11:42:49.624Z,77.14
2022-11-01T11:43:44.632Z,77.18
2022-11-01T11:44:39.635Z,77.17
2022-11-01T11:45:34.678Z,77.52
2022-11-01T11:46:29.712Z,77.64
2022-11-01T11:47:25.067Z,77.75
2022-11-01T11:48:19.859Z,77.89
2022-11-01T11:49:15.460Z,78.12
2022-11-01T11:50:11.057Z,78.12
2022-11-01T11:51:06.821Z,77.94
2022-11-01T11:52:02.321Z,77.73
2022-11-01T11:52:58.084Z,78.00
2022-11-01T11:53:53.414Z,78.03
2022-11-01T11:54:48.913Z,78.08
2022-11-01T11:55:44.075Z,77.95
2022-11-01T11:56:39.098Z,77.78
2022-11-01T11:57:34.226Z,77.77